Highland-University Park's Hourly Summary for Tuesday, July 10, 2018
Hour Temp
(f)
RH
(%)
Solar Rad.
(MJ/m2)
Rainfall
(in)
Wind
(mph)
7/10/2018 12:00 AM 78 78 0 0 1.34
7/10/2018 1:00 AM 77 85 0 0 1.51
7/10/2018 2:00 AM 77 83 0 0 0.39
7/10/2018 3:00 AM 77 80 0 0 0.61
7/10/2018 4:00 AM 76 80 0 0 0.18
7/10/2018 5:00 AM 75 81 0 0 0.11
7/10/2018 6:00 AM 74 86 0 0 0
7/10/2018 7:00 AM 74 88 0.02 0 0.01
7/10/2018 8:00 AM 76 77 0.21 0 0.32
7/10/2018 9:00 AM 79 72 0.31 0 1.68
7/10/2018 10:00 AM 81 65 1.06 0 2.02
7/10/2018 11:00 AM 86 55 2.53 0 3.39
7/10/2018 12:00 PM 89 51 2.13 0 1.91
7/10/2018 1:00 PM 90 43 1.92 0 1.51
7/10/2018 2:00 PM 93 41 2.45 0 1.75
7/10/2018 3:00 PM 94 40 1.83 0 0.93
7/10/2018 4:00 PM 85 40 0.18 0.51 3.6
7/10/2018 5:00 PM 74 97 0 0 0
7/10/2018 6:00 PM 75 97 0.11 0.03 0
7/10/2018 7:00 PM 77 97 0.18 0.01 0
7/10/2018 8:00 PM 77 96 0.1 0 0.08
7/10/2018 9:00 PM 76 96 0.02 0 0
7/10/2018 10:00 PM 76 96 0 0 0.01
7/10/2018 11:00 PM 75 97 0 0 0
Data Summary 79 75 13.05 0.55 0.89